sensor_id;sensor_type;location;lat;lon;timestamp;P1;durP1;ratioP1;P2;durP2;ratioP2
19004;SDS011;9635;52.078;8.648;2023-07-29T00:04:52;2.47;;;2.10;;
19004;SDS011;9635;52.078;8.648;2023-07-29T00:09:55;1.77;;;1.65;;
19004;SDS011;9635;52.078;8.648;2023-07-29T00:14:58;3.70;;;2.10;;
19004;SDS011;9635;52.078;8.648;2023-07-29T00:20:02;2.50;;;2.00;;
19004;SDS011;9635;52.078;8.648;2023-07-29T00:25:09;2.38;;;1.90;;
19004;SDS011;9635;52.078;8.648;2023-07-29T00:30:12;3.00;;;1.70;;
19004;SDS011;9635;52.078;8.648;2023-07-29T00:35:18;1.70;;;1.60;;
19004;SDS011;9635;52.078;8.648;2023-07-29T00:40:21;3.78;;;1.90;;
19004;SDS011;9635;52.078;8.648;2023-07-29T00:45:24;2.55;;;2.13;;
19004;SDS011;9635;52.078;8.648;2023-07-29T00:50:30;2.17;;;2.08;;
19004;SDS011;9635;52.078;8.648;2023-07-29T00:55:35;2.90;;;2.58;;
19004;SDS011;9635;52.078;8.648;2023-07-29T01:00:38;2.53;;;2.30;;
19004;SDS011;9635;52.078;8.648;2023-07-29T01:05:44;2.10;;;1.90;;
19004;SDS011;9635;52.078;8.648;2023-07-29T01:11:01;2.60;;;2.40;;
19004;SDS011;9635;52.078;8.648;2023-07-29T01:16:12;2.10;;;1.90;;
19004;SDS011;9635;52.078;8.648;2023-07-29T01:21:21;2.58;;;2.28;;
19004;SDS011;9635;52.078;8.648;2023-07-29T01:26:25;2.50;;;2.17;;
19004;SDS011;9635;52.078;8.648;2023-07-29T01:31:31;2.08;;;1.95;;
19004;SDS011;9635;52.078;8.648;2023-07-29T01:36:37;2.42;;;2.22;;
19004;SDS011;9635;52.078;8.648;2023-07-29T01:41:43;2.67;;;2.30;;
19004;SDS011;9635;52.078;8.648;2023-07-29T01:46:47;2.30;;;2.13;;
19004;SDS011;9635;52.078;8.648;2023-07-29T01:51:51;2.90;;;2.70;;
19004;SDS011;9635;52.078;8.648;2023-07-29T01:56:55;2.55;;;2.35;;
19004;SDS011;9635;52.078;8.648;2023-07-29T02:01:58;4.28;;;2.45;;
19004;SDS011;9635;52.078;8.648;2023-07-29T02:07:01;2.83;;;2.63;;
19004;SDS011;9635;52.078;8.648;2023-07-29T02:12:06;2.85;;;2.67;;
19004;SDS011;9635;52.078;8.648;2023-07-29T02:17:12;3.55;;;2.75;;
19004;SDS011;9635;52.078;8.648;2023-07-29T02:22:16;3.90;;;3.42;;
19004;SDS011;9635;52.078;8.648;2023-07-29T02:27:20;2.97;;;2.78;;
19004;SDS011;9635;52.078;8.648;2023-07-29T02:32:24;2.95;;;2.72;;
19004;SDS011;9635;52.078;8.648;2023-07-29T02:37:27;2.70;;;2.50;;
19004;SDS011;9635;52.078;8.648;2023-07-29T02:42:31;5.15;;;3.17;;
19004;SDS011;9635;52.078;8.648;2023-07-29T02:47:35;3.55;;;2.60;;
19004;SDS011;9635;52.078;8.648;2023-07-29T02:52:38;3.00;;;2.78;;
19004;SDS011;9635;52.078;8.648;2023-07-29T02:57:42;3.10;;;2.90;;
19004;SDS011;9635;52.078;8.648;2023-07-29T03:02:45;3.30;;;3.10;;
19004;SDS011;9635;52.078;8.648;2023-07-29T03:07:48;3.13;;;2.92;;
19004;SDS011;9635;52.078;8.648;2023-07-29T03:12:54;3.63;;;2.90;;
19004;SDS011;9635;52.078;8.648;2023-07-29T03:17:57;2.67;;;2.47;;
19004;SDS011;9635;52.078;8.648;2023-07-29T03:23:01;2.78;;;2.58;;
19004;SDS011;9635;52.078;8.648;2023-07-29T03:28:05;3.55;;;2.22;;
19004;SDS011;9635;52.078;8.648;2023-07-29T03:33:08;2.40;;;2.00;;
19004;SDS011;9635;52.078;8.648;2023-07-29T03:38:11;5.57;;;2.33;;
19004;SDS011;9635;52.078;8.648;2023-07-29T03:43:16;2.10;;;2.00;;
19004;SDS011;9635;52.078;8.648;2023-07-29T03:48:19;3.40;;;3.20;;
19004;SDS011;9635;52.078;8.648;2023-07-29T03:53:22;2.40;;;2.22;;
19004;SDS011;9635;52.078;8.648;2023-07-29T03:58:26;2.92;;;2.63;;
19004;SDS011;9635;52.078;8.648;2023-07-29T04:03:29;2.53;;;2.33;;
19004;SDS011;9635;52.078;8.648;2023-07-29T04:08:32;2.78;;;2.58;;
19004;SDS011;9635;52.078;8.648;2023-07-29T04:13:36;2.38;;;2.28;;
19004;SDS011;9635;52.078;8.648;2023-07-29T04:18:39;2.72;;;2.33;;
19004;SDS011;9635;52.078;8.648;2023-07-29T04:23:42;2.72;;;2.53;;
19004;SDS011;9635;52.078;8.648;2023-07-29T04:28:46;2.88;;;2.67;;
19004;SDS011;9635;52.078;8.648;2023-07-29T04:33:49;3.00;;;2.67;;
19004;SDS011;9635;52.078;8.648;2023-07-29T04:38:52;2.38;;;2.28;;
19004;SDS011;9635;52.078;8.648;2023-07-29T04:43:56;4.40;;;2.60;;
19004;SDS011;9635;52.078;8.648;2023-07-29T04:48:59;3.03;;;2.83;;
19004;SDS011;9635;52.078;8.648;2023-07-29T04:54:02;3.92;;;2.65;;
19004;SDS011;9635;52.078;8.648;2023-07-29T04:59:07;2.85;;;2.70;;
19004;SDS011;9635;52.078;8.648;2023-07-29T05:04:10;4.30;;;3.45;;
19004;SDS011;9635;52.078;8.648;2023-07-29T05:09:13;2.88;;;2.67;;
19004;SDS011;9635;52.078;8.648;2023-07-29T05:14:19;2.72;;;2.53;;
19004;SDS011;9635;52.078;8.648;2023-07-29T05:19:22;3.90;;;2.55;;
19004;SDS011;9635;52.078;8.648;2023-07-29T05:24:25;3.35;;;2.45;;
19004;SDS011;9635;52.078;8.648;2023-07-29T05:29:29;4.53;;;3.13;;
19004;SDS011;9635;52.078;8.648;2023-07-29T05:34:32;3.60;;;2.33;;
19004;SDS011;9635;52.078;8.648;2023-07-29T05:39:35;4.00;;;2.38;;
19004;SDS011;9635;52.078;8.648;2023-07-29T05:44:40;2.72;;;2.53;;
19004;SDS011;9635;52.078;8.648;2023-07-29T05:49:43;3.40;;;2.40;;
19004;SDS011;9635;52.078;8.648;2023-07-29T05:54:46;2.80;;;2.60;;
19004;SDS011;9635;52.078;8.648;2023-07-29T05:59:50;4.00;;;2.13;;
19004;SDS011;9635;52.078;8.648;2023-07-29T06:04:53;2.50;;;2.30;;
19004;SDS011;9635;52.078;8.648;2023-07-29T06:09:57;2.60;;;2.40;;
19004;SDS011;9635;52.078;8.648;2023-07-29T06:15:01;3.38;;;2.40;;
19004;SDS011;9635;52.078;8.648;2023-07-29T06:20:04;2.30;;;2.10;;
19004;SDS011;9635;52.078;8.648;2023-07-29T06:25:08;2.08;;;1.98;;
19004;SDS011;9635;52.078;8.648;2023-07-29T06:30:14;2.38;;;2.20;;
19004;SDS011;9635;52.078;8.648;2023-07-29T06:35:16;5.20;;;2.13;;
19004;SDS011;9635;52.078;8.648;2023-07-29T06:40:19;2.72;;;2.30;;
19004;SDS011;9635;52.078;8.648;2023-07-29T06:45:24;4.28;;;2.80;;
19004;SDS011;9635;52.078;8.648;2023-07-29T06:50:27;4.07;;;2.75;;
19004;SDS011;9635;52.078;8.648;2023-07-29T06:55:30;3.80;;;3.50;;
19004;SDS011;9635;52.078;8.648;2023-07-29T07:00:34;4.30;;;3.90;;
19004;SDS011;9635;52.078;8.648;2023-07-29T07:05:37;3.85;;;3.35;;
19004;SDS011;9635;52.078;8.648;2023-07-29T07:10:40;4.20;;;3.80;;
19004;SDS011;9635;52.078;8.648;2023-07-29T07:15:44;7.13;;;6.03;;
19004;SDS011;9635;52.078;8.648;2023-07-29T07:20:47;7.97;;;7.20;;
19004;SDS011;9635;52.078;8.648;2023-07-29T07:25:50;10.48;;;8.98;;
19004;SDS011;9635;52.078;8.648;2023-07-29T07:30:54;14.15;;;11.82;;
19004;SDS011;9635;52.078;8.648;2023-07-29T07:35:57;19.67;;;14.85;;
19004;SDS011;9635;52.078;8.648;2023-07-29T07:41:00;25.73;;;17.17;;
19004;SDS011;9635;52.078;8.648;2023-07-29T07:46:04;27.17;;;19.23;;
19004;SDS011;9635;52.078;8.648;2023-07-29T07:51:10;27.48;;;22.15;;
19004;SDS011;9635;52.078;8.648;2023-07-29T07:56:14;23.90;;;19.52;;
19004;SDS011;9635;52.078;8.648;2023-07-29T08:01:19;20.58;;;18.27;;
19004;SDS011;9635;52.078;8.648;2023-07-29T08:06:22;17.52;;;13.75;;
19004;SDS011;9635;52.078;8.648;2023-07-29T08:11:25;14.73;;;12.93;;
19004;SDS011;9635;52.078;8.648;2023-07-29T08:16:29;9.77;;;8.43;;
19004;SDS011;9635;52.078;8.648;2023-07-29T08:21:32;12.00;;;9.88;;
19004;SDS011;9635;52.078;8.648;2023-07-29T08:26:35;9.32;;;8.43;;
19004;SDS011;9635;52.078;8.648;2023-07-29T08:31:40;5.82;;;5.28;;
19004;SDS011;9635;52.078;8.648;2023-07-29T08:36:43;4.80;;;4.40;;
19004;SDS011;9635;52.078;8.648;2023-07-29T08:41:48;3.60;;;3.00;;
19004;SDS011;9635;52.078;8.648;2023-07-29T08:46:57;4.60;;;2.92;;
19004;SDS011;9635;52.078;8.648;2023-07-29T08:52:02;2.75;;;2.55;;
19004;SDS011;9635;52.078;8.648;2023-07-29T08:57:07;2.30;;;2.20;;
19004;SDS011;9635;52.078;8.648;2023-07-29T09:02:11;2.22;;;1.65;;
19004;SDS011;9635;52.078;8.648;2023-07-29T09:07:14;3.80;;;2.00;;
19004;SDS011;9635;52.078;8.648;2023-07-29T09:12:17;2.97;;;1.35;;
19004;SDS011;9635;52.078;8.648;2023-07-29T09:17:22;1.08;;;0.98;;
19004;SDS011;9635;52.078;8.648;2023-07-29T09:22:26;1.38;;;1.20;;
19004;SDS011;9635;52.078;8.648;2023-07-29T09:27:29;1.45;;;1.30;;
19004;SDS011;9635;52.078;8.648;2023-07-29T09:32:35;1.17;;;1.08;;
19004;SDS011;9635;52.078;8.648;2023-07-29T09:37:41;2.70;;;1.38;;
19004;SDS011;9635;52.078;8.648;2023-07-29T09:42:49;1.38;;;1.15;;
19004;SDS011;9635;52.078;8.648;2023-07-29T09:47:56;1.10;;;1.02;;
19004;SDS011;9635;52.078;8.648;2023-07-29T09:53:00;1.75;;;1.35;;
19004;SDS011;9635;52.078;8.648;2023-07-29T09:58:04;1.10;;;1.02;;
19004;SDS011;9635;52.078;8.648;2023-07-29T10:03:11;0.70;;;0.60;;
19004;SDS011;9635;52.078;8.648;2023-07-29T10:08:15;0.73;;;0.73;;
19004;SDS011;9635;52.078;8.648;2023-07-29T10:13:20;0.75;;;0.75;;
19004;SDS011;9635;52.078;8.648;2023-07-29T10:18:25;0.80;;;0.70;;
19004;SDS011;9635;52.078;8.648;2023-07-29T10:23:32;1.00;;;0.68;;
19004;SDS011;9635;52.078;8.648;2023-07-29T10:28:40;1.40;;;0.90;;
19004;SDS011;9635;52.078;8.648;2023-07-29T10:33:50;0.80;;;0.80;;
19004;SDS011;9635;52.078;8.648;2023-07-29T10:38:54;0.70;;;0.70;;
19004;SDS011;9635;52.078;8.648;2023-07-29T10:43:57;1.88;;;0.70;;
19004;SDS011;9635;52.078;8.648;2023-07-29T10:49:01;1.85;;;1.38;;
19004;SDS011;9635;52.078;8.648;2023-07-29T10:54:10;1.02;;;0.80;;
19004;SDS011;9635;52.078;8.648;2023-07-29T10:59:31;1.10;;;0.70;;
19004;SDS011;9635;52.078;8.648;2023-07-29T11:04:45;1.63;;;0.47;;
19004;SDS011;9635;52.078;8.648;2023-07-29T11:09:56;0.60;;;0.60;;
19004;SDS011;9635;52.078;8.648;2023-07-29T11:15:04;0.88;;;0.88;;
19004;SDS011;9635;52.078;8.648;2023-07-29T11:20:17;0.30;;;0.30;;
19004;SDS011;9635;52.078;8.648;2023-07-29T11:25:21;0.80;;;0.73;;
19004;SDS011;9635;52.078;8.648;2023-07-29T11:30:25;1.48;;;0.80;;
19004;SDS011;9635;52.078;8.648;2023-07-29T11:35:32;0.68;;;0.68;;
19004;SDS011;9635;52.078;8.648;2023-07-29T11:40:35;1.55;;;0.70;;
19004;SDS011;9635;52.078;8.648;2023-07-29T11:45:38;1.13;;;0.60;;
19004;SDS011;9635;52.078;8.648;2023-07-29T11:50:54;0.95;;;0.70;;
19004;SDS011;9635;52.078;8.648;2023-07-29T11:55:57;0.75;;;0.70;;
19004;SDS011;9635;52.078;8.648;2023-07-29T12:01:01;1.35;;;0.80;;
19004;SDS011;9635;52.078;8.648;2023-07-29T12:06:05;0.60;;;0.60;;
19004;SDS011;9635;52.078;8.648;2023-07-29T12:11:09;0.65;;;0.65;;
19004;SDS011;9635;52.078;8.648;2023-07-29T12:16:15;0.70;;;0.70;;
19004;SDS011;9635;52.078;8.648;2023-07-29T12:21:20;0.73;;;0.70;;
19004;SDS011;9635;52.078;8.648;2023-07-29T12:26:26;0.80;;;0.80;;
19004;SDS011;9635;52.078;8.648;2023-07-29T12:31:33;2.97;;;1.20;;
19004;SDS011;9635;52.078;8.648;2023-07-29T12:36:41;0.80;;;0.80;;
19004;SDS011;9635;52.078;8.648;2023-07-29T12:41:45;0.75;;;0.75;;
19004;SDS011;9635;52.078;8.648;2023-07-29T12:46:49;1.60;;;1.48;;
19004;SDS011;9635;52.078;8.648;2023-07-29T12:51:53;3.20;;;1.17;;
19004;SDS011;9635;52.078;8.648;2023-07-29T12:56:56;1.20;;;1.20;;
19004;SDS011;9635;52.078;8.648;2023-07-29T13:01:59;2.00;;;1.20;;
19004;SDS011;9635;52.078;8.648;2023-07-29T13:07:03;0.90;;;0.90;;
19004;SDS011;9635;52.078;8.648;2023-07-29T13:12:08;1.77;;;0.65;;
19004;SDS011;9635;52.078;8.648;2023-07-29T13:17:11;2.65;;;0.82;;
19004;SDS011;9635;52.078;8.648;2023-07-29T13:22:15;0.73;;;0.73;;
19004;SDS011;9635;52.078;8.648;2023-07-29T13:27:18;1.75;;;0.80;;
19004;SDS011;9635;52.078;8.648;2023-07-29T13:32:21;1.05;;;0.70;;
19004;SDS011;9635;52.078;8.648;2023-07-29T13:37:25;1.20;;;0.80;;
19004;SDS011;9635;52.078;8.648;2023-07-29T13:42:28;0.73;;;0.73;;
19004;SDS011;9635;52.078;8.648;2023-07-29T13:47:31;1.75;;;1.13;;
19004;SDS011;9635;52.078;8.648;2023-07-29T13:52:36;1.02;;;0.80;;
19004;SDS011;9635;52.078;8.648;2023-07-29T13:57:39;2.97;;;0.90;;
19004;SDS011;9635;52.078;8.648;2023-07-29T14:02:42;1.88;;;0.95;;
19004;SDS011;9635;52.078;8.648;2023-07-29T14:07:47;4.30;;;1.05;;
19004;SDS011;9635;52.078;8.648;2023-07-29T14:12:50;0.80;;;0.80;;
19004;SDS011;9635;52.078;8.648;2023-07-29T14:17:53;0.95;;;0.85;;
19004;SDS011;9635;52.078;8.648;2023-07-29T14:22:57;0.95;;;0.85;;
19004;SDS011;9635;52.078;8.648;2023-07-29T14:28:00;6.47;;;1.20;;
19004;SDS011;9635;52.078;8.648;2023-07-29T14:33:03;3.28;;;1.00;;
19004;SDS011;9635;52.078;8.648;2023-07-29T14:38:07;0.95;;;0.90;;
19004;SDS011;9635;52.078;8.648;2023-07-29T14:43:10;4.43;;;1.05;;
19004;SDS011;9635;52.078;8.648;2023-07-29T14:48:13;5.70;;;1.10;;
19004;SDS011;9635;52.078;8.648;2023-07-29T14:53:17;3.35;;;1.45;;
19004;SDS011;9635;52.078;8.648;2023-07-29T14:58:20;2.33;;;1.10;;
19004;SDS011;9635;52.078;8.648;2023-07-29T15:03:24;1.55;;;1.20;;
19004;SDS011;9635;52.078;8.648;2023-07-29T15:08:29;1.25;;;1.10;;
19004;SDS011;9635;52.078;8.648;2023-07-29T15:13:32;3.38;;;1.67;;
19004;SDS011;9635;52.078;8.648;2023-07-29T15:18:35;7.28;;;3.25;;
19004;SDS011;9635;52.078;8.648;2023-07-29T15:23:40;7.28;;;4.05;;
19004;SDS011;9635;52.078;8.648;2023-07-29T15:28:43;11.65;;;4.70;;
19004;SDS011;9635;52.078;8.648;2023-07-29T15:33:46;4.78;;;4.10;;
19004;SDS011;9635;52.078;8.648;2023-07-29T15:38:50;7.75;;;6.32;;
19004;SDS011;9635;52.078;8.648;2023-07-29T15:43:53;7.72;;;6.20;;
19004;SDS011;9635;52.078;8.648;2023-07-29T15:48:56;7.35;;;6.50;;
19004;SDS011;9635;52.078;8.648;2023-07-29T15:54:02;7.90;;;5.80;;
19004;SDS011;9635;52.078;8.648;2023-07-29T15:59:05;5.53;;;5.13;;
19004;SDS011;9635;52.078;8.648;2023-07-29T16:04:08;5.28;;;4.63;;
19004;SDS011;9635;52.078;8.648;2023-07-29T16:09:12;6.47;;;5.55;;
19004;SDS011;9635;52.078;8.648;2023-07-29T16:14:15;4.85;;;4.40;;
19004;SDS011;9635;52.078;8.648;2023-07-29T16:19:22;4.13;;;3.55;;
19004;SDS011;9635;52.078;8.648;2023-07-29T16:24:27;4.25;;;3.05;;
19004;SDS011;9635;52.078;8.648;2023-07-29T16:29:30;2.80;;;2.50;;
19004;SDS011;9635;52.078;8.648;2023-07-29T16:34:33;3.22;;;1.83;;
19004;SDS011;9635;52.078;8.648;2023-07-29T16:39:37;3.25;;;1.73;;
19004;SDS011;9635;52.078;8.648;2023-07-29T16:44:40;3.72;;;1.33;;
19004;SDS011;9635;52.078;8.648;2023-07-29T16:49:43;3.20;;;1.85;;
19004;SDS011;9635;52.078;8.648;2023-07-29T16:54:47;2.08;;;1.30;;
19004;SDS011;9635;52.078;8.648;2023-07-29T16:59:50;2.20;;;1.35;;
19004;SDS011;9635;52.078;8.648;2023-07-29T17:04:54;2.70;;;1.52;;
19004;SDS011;9635;52.078;8.648;2023-07-29T17:09:58;1.52;;;1.30;;
19004;SDS011;9635;52.078;8.648;2023-07-29T17:15:01;2.55;;;1.33;;
19004;SDS011;9635;52.078;8.648;2023-07-29T17:20:05;1.65;;;1.20;;
19004;SDS011;9635;52.078;8.648;2023-07-29T17:25:09;2.42;;;1.13;;
19004;SDS011;9635;52.078;8.648;2023-07-29T17:30:12;2.47;;;1.13;;
19004;SDS011;9635;52.078;8.648;2023-07-29T17:35:15;2.75;;;1.58;;
19004;SDS011;9635;52.078;8.648;2023-07-29T17:40:20;1.73;;;1.20;;
19004;SDS011;9635;52.078;8.648;2023-07-29T17:45:23;2.33;;;1.50;;
19004;SDS011;9635;52.078;8.648;2023-07-29T17:50:26;1.20;;;1.10;;
19004;SDS011;9635;52.078;8.648;2023-07-29T17:55:36;2.75;;;1.00;;
19004;SDS011;9635;52.078;8.648;2023-07-29T18:00:40;1.20;;;1.10;;
19004;SDS011;9635;52.078;8.648;2023-07-29T18:05:43;1.15;;;1.05;;
19004;SDS011;9635;52.078;8.648;2023-07-29T18:10:47;1.75;;;1.13;;
19004;SDS011;9635;52.078;8.648;2023-07-29T18:15:51;2.88;;;1.10;;
19004;SDS011;9635;52.078;8.648;2023-07-29T18:20:54;1.58;;;1.10;;
19004;SDS011;9635;52.078;8.648;2023-07-29T18:25:58;1.20;;;1.10;;
19004;SDS011;9635;52.078;8.648;2023-07-29T18:31:01;3.53;;;1.35;;
19004;SDS011;9635;52.078;8.648;2023-07-29T18:36:04;1.58;;;1.42;;
19004;SDS011;9635;52.078;8.648;2023-07-29T18:41:09;1.73;;;1.27;;
19004;SDS011;9635;52.078;8.648;2023-07-29T18:46:12;2.53;;;1.10;;
19004;SDS011;9635;52.078;8.648;2023-07-29T18:51:15;2.20;;;2.00;;
19004;SDS011;9635;52.078;8.648;2023-07-29T18:56:19;4.32;;;1.80;;
19004;SDS011;9635;52.078;8.648;2023-07-29T19:01:22;2.63;;;1.80;;
19004;SDS011;9635;52.078;8.648;2023-07-29T19:06:25;3.95;;;2.13;;
19004;SDS011;9635;52.078;8.648;2023-07-29T19:11:29;5.40;;;1.67;;
19004;SDS011;9635;52.078;8.648;2023-07-29T19:16:32;2.22;;;1.35;;
19004;SDS011;9635;52.078;8.648;2023-07-29T19:21:35;2.10;;;1.85;;
19004;SDS011;9635;52.078;8.648;2023-07-29T19:26:39;1.80;;;1.48;;
19004;SDS011;9635;52.078;8.648;2023-07-29T19:31:42;6.03;;;1.85;;
19004;SDS011;9635;52.078;8.648;2023-07-29T19:36:45;1.73;;;1.50;;
19004;SDS011;9635;52.078;8.648;2023-07-29T19:41:50;4.90;;;1.80;;
19004;SDS011;9635;52.078;8.648;2023-07-29T19:46:53;1.80;;;1.45;;
19004;SDS011;9635;52.078;8.648;2023-07-29T19:51:56;2.13;;;1.85;;
19004;SDS011;9635;52.078;8.648;2023-07-29T19:57:04;1.73;;;1.60;;
19004;SDS011;9635;52.078;8.648;2023-07-29T20:02:08;3.70;;;1.77;;
19004;SDS011;9635;52.078;8.648;2023-07-29T20:07:11;3.50;;;1.80;;
19004;SDS011;9635;52.078;8.648;2023-07-29T20:12:15;6.10;;;2.13;;
19004;SDS011;9635;52.078;8.648;2023-07-29T20:17:18;3.40;;;2.20;;
19004;SDS011;9635;52.078;8.648;2023-07-29T20:22:21;2.17;;;1.98;;
19004;SDS011;9635;52.078;8.648;2023-07-29T20:27:25;3.38;;;2.00;;
19004;SDS011;9635;52.078;8.648;2023-07-29T20:32:28;2.25;;;2.05;;
19004;SDS011;9635;52.078;8.648;2023-07-29T20:37:32;3.58;;;2.47;;
19004;SDS011;9635;52.078;8.648;2023-07-29T20:42:36;3.83;;;2.17;;
19004;SDS011;9635;52.078;8.648;2023-07-29T20:47:39;2.75;;;1.83;;
19004;SDS011;9635;52.078;8.648;2023-07-29T20:52:42;3.22;;;2.03;;
19004;SDS011;9635;52.078;8.648;2023-07-29T20:57:46;4.50;;;2.40;;
19004;SDS011;9635;52.078;8.648;2023-07-29T21:02:49;5.32;;;3.15;;
19004;SDS011;9635;52.078;8.648;2023-07-29T21:07:52;2.45;;;2.25;;
19004;SDS011;9635;52.078;8.648;2023-07-29T21:12:56;3.13;;;2.60;;
19004;SDS011;9635;52.078;8.648;2023-07-29T21:17:59;3.35;;;2.88;;
19004;SDS011;9635;52.078;8.648;2023-07-29T21:23:02;2.70;;;1.92;;
19004;SDS011;9635;52.078;8.648;2023-07-29T21:28:06;3.50;;;2.33;;
19004;SDS011;9635;52.078;8.648;2023-07-29T21:33:09;5.25;;;2.53;;
19004;SDS011;9635;52.078;8.648;2023-07-29T21:38:12;13.27;;;3.38;;
19004;SDS011;9635;52.078;8.648;2023-07-29T21:43:31;7.25;;;2.63;;
19004;SDS011;9635;52.078;8.648;2023-07-29T21:48:35;3.97;;;2.60;;
19004;SDS011;9635;52.078;8.648;2023-07-29T21:53:37;3.15;;;2.70;;
19004;SDS011;9635;52.078;8.648;2023-07-29T21:58:42;4.60;;;2.65;;
19004;SDS011;9635;52.078;8.648;2023-07-29T22:03:45;5.28;;;2.15;;
19004;SDS011;9635;52.078;8.648;2023-07-29T22:08:48;5.32;;;3.13;;
19004;SDS011;9635;52.078;8.648;2023-07-29T22:13:52;4.03;;;2.47;;
19004;SDS011;9635;52.078;8.648;2023-07-29T22:18:55;4.75;;;2.40;;
19004;SDS011;9635;52.078;8.648;2023-07-29T22:23:58;3.03;;;2.83;;
19004;SDS011;9635;52.078;8.648;2023-07-29T22:29:02;3.50;;;2.88;;
19004;SDS011;9635;52.078;8.648;2023-07-29T22:34:05;4.45;;;2.88;;
19004;SDS011;9635;52.078;8.648;2023-07-29T22:39:08;3.47;;;3.17;;
19004;SDS011;9635;52.078;8.648;2023-07-29T22:44:12;5.18;;;3.05;;
19004;SDS011;9635;52.078;8.648;2023-07-29T22:49:15;6.88;;;3.50;;
19004;SDS011;9635;52.078;8.648;2023-07-29T22:54:18;4.13;;;3.83;;
19004;SDS011;9635;52.078;8.648;2023-07-29T22:59:23;8.75;;;3.67;;
19004;SDS011;9635;52.078;8.648;2023-07-29T23:04:26;4.70;;;3.63;;
19004;SDS011;9635;52.078;8.648;2023-07-29T23:09:29;4.93;;;3.80;;
19004;SDS011;9635;52.078;8.648;2023-07-29T23:14:33;4.10;;;3.67;;
19004;SDS011;9635;52.078;8.648;2023-07-29T23:19:36;7.03;;;4.00;;
19004;SDS011;9635;52.078;8.648;2023-07-29T23:24:39;5.00;;;4.25;;
19004;SDS011;9635;52.078;8.648;2023-07-29T23:29:43;5.35;;;4.85;;
19004;SDS011;9635;52.078;8.648;2023-07-29T23:34:46;8.27;;;5.22;;
19004;SDS011;9635;52.078;8.648;2023-07-29T23:39:49;5.80;;;5.18;;
19004;SDS011;9635;52.078;8.648;2023-07-29T23:44:53;8.65;;;5.53;;
19004;SDS011;9635;52.078;8.648;2023-07-29T23:49:56;7.03;;;5.35;;
19004;SDS011;9635;52.078;8.648;2023-07-29T23:54:59;7.63;;;5.60;;
